SBOSBO ALG / DAAG
Speedbird OnlineSpeedbird Online ALG / DAAG

Houari Boumediene Airport
07:47 17°C

Location Algier, Algeria
Latitude: 36.691001892089844
Longitude: 3.215409994125366
Web Wikipedia
Altitude 25 Meter / 82 Feet
Distance 1,666 KM / 1,035 Miles
from London.
Time Zone UTC +1 hours (Africa/Algiers)
Codes IATA: ALG
ICAO: DAAG
Currency £1 equals DZD 159.02
Runways
RunwayLength (m)Surface
053500Asphalt
093500Asphalt
233500Asphalt
273500Asphalt
Radio
TypeDescriptionFrequency
APPALGIERS APP121.4
CCRALGIERS CCR127.3
GNDALGIERS GND121.8
TWRALGIERS TWR118.7
Live ATC
METAR DAAG 060600Z 19003KT 8000 FEW023 SCT090 16/15 Q1022
TAF TAF DAAG 060500Z 0606/0706 VRB02KT 9999 FEW023 SCT090 TEMPO 0606/0616 FEW026CB PROB30 TEMPO 0606/0609 4000 -RA FEW023CB BECMG 0618/0620 VRB02KT
Weather As Of 06 Oct 2022 07:47
Description Scattered clouds
Wind 4 km/h from North (0°)
Cloud Cover 40%
Precipitation Rain: none, Snow: none
Sunrise 06:46
Sunset 18:24
Lounges Salon Premiere Classe, Between Terminal 1 and 2
Rotations During the last 90 days there were
60 flights from LHR
59 flights to LHR


© 2017-2022 Speedbird Online